»·PEaware :: POST13 KEND-KTIK

POST13 :: KEND-KTIK

FLIGHT INFORMATION

Flight Status: Arrived
Operator: Unknown
More flights by this operator :: More flights under this callsign
Pilot: Reed T. (21622)
Aircraft: BEECH AIRCRAFT T-6A TEXAN
(TEX2)
More flights by this aircraft type
Origin: KEND Vance AFB
United States
Destination: KTIK Tinker AFB
United States
More flights between these airports :: More routes between these airports
Route: PODDS WOPEK MANON TUL KTUL/D015 TUL GULLI2
File this flight plan on PilotEdge
Remarks: Radar delay at KTUL. Flight of 2
Altitude:
(Current/Filed)
13,000ft
Speed:
(Current/Filed)
260kts
Departed: 06-Apr-21 11:23 AM
Arrived: 06-Apr-21 12:16 PM
Distance/Time
Traveled:
61nm/0:53
Distance/Time
To Go:
Arrived

Flight Plot

Page will automatically refresh every two minutes.

Flight plan parsing failed; only flown route is shown


Map Options




Map Legend


Flown Route
Filed Route
Departure Airport
Arrival Airport
Navaid (VOR, NDB)
Fix

Horizontal Profiles

Position Reports

Time Latitude Longitude Heading Altitude Ground
Speed
06-Apr-21 11:12 36.337212 -97.908022 179 1290ft 0kts
06-Apr-21 11:13 36.337212 -97.908022 179 1290ft 0kts
06-Apr-21 11:14 36.337212 -97.908022 179 1290ft 0kts
06-Apr-21 11:15 36.337212 -97.908022 179 1290ft 0kts
06-Apr-21 11:16 36.337212 -97.908022 179 1290ft 0kts
06-Apr-21 11:17 36.337055 -97.909109 264 1289ft 4kts
06-Apr-21 11:18 36.333615 -97.909886 280 1291ft 0kts
06-Apr-21 11:19 36.333626 -97.910016 268 1290ft 0kts
06-Apr-21 11:20 36.333626 -97.910043 269 1290ft 0kts
06-Apr-21 11:21 36.333350 -97.910829 290 1290ft 5kts
06-Apr-21 11:22 36.338201 -97.910957 0 1286ft 92kts
06-Apr-21 11:23 36.383157 -97.906684 8 2690ft 157kts
06-Apr-21 11:24 36.438314 -97.890778 14 4554ft 170kts
06-Apr-21 11:25 36.494980 -97.875167 13 5641ft 155kts
06-Apr-21 11:26 36.526075 -97.821068 75 8272ft 159kts
06-Apr-21 11:27 36.541751 -97.758267 75 10963ft 158kts
06-Apr-21 11:28 36.554443 -97.688154 72 13047ft 186kts
06-Apr-21 11:29 36.574936 -97.595972 72 12965ft 253kts
06-Apr-21 11:30 36.604094 -97.497134 68 13048ft 252kts
06-Apr-21 11:31 36.619203 -97.401425 104 12476ft 228kts
06-Apr-21 11:32 36.603995 -97.293525 99 13212ft 284kts
06-Apr-21 11:33 36.585268 -97.171625 106 12952ft 276kts
06-Apr-21 11:34 36.573263 -97.061504 93 12956ft 280kts
06-Apr-21 11:35 36.564168 -96.947810 100 13105ft 264kts
06-Apr-21 11:36 36.538684 -96.836690 110 13193ft 265kts
06-Apr-21 11:37 36.518254 -96.729481 103 13143ft 249kts
06-Apr-21 11:38 36.496711 -96.617198 82 13104ft 270kts
06-Apr-21 11:39 36.494555 -96.512230 110 13119ft 264kts
06-Apr-21 11:40 36.448871 -96.403660 116 13010ft 295kts
06-Apr-21 11:41 36.421963 -96.294370 82 10993ft 277kts
06-Apr-21 11:42 36.433301 -96.174059 83 7396ft 283kts
06-Apr-21 11:43 36.442644 -96.058281 87 4159ft 288kts
06-Apr-21 11:44 36.440000 -95.951232 93 3878ft 231kts
06-Apr-21 11:45 36.392735 -95.888968 147 4003ft 212kts
06-Apr-21 11:46 36.321633 -95.897006 177 2954ft 198kts
06-Apr-21 11:47 36.268778 -95.888958 176 1909ft 101kts
06-Apr-21 11:48 36.232790 -95.892898 199 1354ft 124kts
06-Apr-21 11:49 36.182260 -95.899637 178 2118ft 132kts
06-Apr-21 11:50 36.126688 -95.904538 201 5343ft 171kts
06-Apr-21 11:52 36.110418 -95.969789 268 8722ft 149kts
06-Apr-21 11:53 36.105803 -96.045111 266 11944ft 202kts
06-Apr-21 11:54 36.100118 -96.149181 272 12163ft 266kts
06-Apr-21 11:55 36.108524 -96.265087 281 12043ft 272kts
06-Apr-21 11:56 36.116184 -96.378915 276 11869ft 254kts
06-Apr-21 11:57 36.114849 -96.484378 262 12026ft 253kts
06-Apr-21 11:58 36.101862 -96.592418 263 12059ft 252kts
06-Apr-21 11:59 36.086966 -96.700828 257 11973ft 259kts
06-Apr-21 12:00 36.062107 -96.813134 255 11997ft 284kts
06-Apr-21 12:01 36.037684 -96.932372 259 12061ft 288kts
06-Apr-21 12:02 36.019166 -97.053792 260 12003ft 292kts
06-Apr-21 12:03 35.980264 -97.157297 203 12160ft 277kts
06-Apr-21 12:04 35.891745 -97.203798 203 12016ft 269kts
06-Apr-21 12:05 35.817527 -97.261189 214 9795ft 254kts
06-Apr-21 12:06 35.748408 -97.318215 214 6948ft 227kts
06-Apr-21 12:07 35.682588 -97.375887 225 4309ft 232kts
06-Apr-21 12:08 35.625492 -97.443592 226 3997ft 188kts
06-Apr-21 12:09 35.582994 -97.490614 224 3977ft 146kts
06-Apr-21 12:10 35.549649 -97.533508 224 3913ft 137kts
06-Apr-21 12:11 35.505011 -97.524756 153 4054ft 134kts
06-Apr-21 12:11 35.474110 -97.500828 136 3938ft 130kts
06-Apr-21 12:13 35.449533 -97.443729 126 3065ft 130kts
06-Apr-21 12:14 35.454215 -97.394100 76 1931ft 125kts
06-Apr-21 12:14 35.428893 -97.382127 180 1314ft 105kts
06-Apr-21 12:16 35.417395 -97.380827 113 1271ft 0kts

Navigation Log

Ident Type
Flight plan parsing failed, navigation log unavailable